LPMA Información de aeropuertos

Información de pistas
Pista 05 Longitud 9110 ft Ancho 148 ft
Elevación 147 ft Umbral 480 ft Rumbo 45
Pista 23 Longitud 9110 ft Ancho 148 ft
Elevación 192 ft Umbral 490 ft Rumbo 225
Frecuencias
Tipo APP Nombre APP Frequencia 119.2 MHZ
Tipo TWR Nombre TWR Frequencia 118.35 MHZ
Radioayudas
Tipo VOR-DME Nombre Madeira Frequencia 112200 KHZ
Tipo NDB Nombre Madeira Frequencia 318 KHZ
Información meteorológica y NOTAM
ADDS - METARS form results

(1805 UTC 12 June 2021)
Data provider http://aviationweather.gov/metar/data/
 
METAR text: LPMA 121800Z 02009KT 300V070 9999 FEW015 21/15 Q1021
Conditions at: LPMA (FUNCHAL/MADEIRA , PT) observed 1800 UTC 12 June 2021
Temperature: 21.0°C (70°F)
Dewpoint: 15.0°C (59°F) [RH = 69%]
Pressure (altimeter): 30.15 inches Hg (1021.0 mb)
Winds: from the NNE (20 degrees) at 10 MPH (9 knots; 4.6 m/s)
Visibility: 6 or more miles (10+ km)
Ceiling: at least 12,000 feet AGL
Clouds: few clouds at 1500 feet AGL
Weather: no significant weather observed at this time

METAR text: LPMA 121730Z 01013KT 320V060 9999 FEW015 22/15 Q1021
Conditions at: LPMA (FUNCHAL/MADEIRA , PT) observed 1730 UTC 12 June 2021
Temperature: 22.0°C (72°F)
Dewpoint: 15.0°C (59°F) [RH = 65%]
Pressure (altimeter): 30.15 inches Hg (1021.0 mb)
Winds: from the N (10 degrees) at 15 MPH (13 knots; 6.7 m/s)
Visibility: 6 or more miles (10+ km)
Ceiling: at least 12,000 feet AGL
Clouds: few clouds at 1500 feet AGL
Weather: no significant weather observed at this time

Forecast for: LPMA (FUNCHAL/MADEIRA , PT)
Text: TAF LPMA 121700Z 1218/1318 01015KT 9999 FEW015
Forecast period: 1800 UTC 12 June 2021 to 1800 UTC 13 June 2021
Forecast type: FROM: standard forecast or significant change
Winds: from the N (10 degrees) at 17 MPH (15 knots; 7.7 m/s)
Visibility: 6 or more miles (10+ km)
Ceiling: at least 12,000 feet AGL
Clouds: few clouds at 1500 feet AGL
Weather: no significant weather forecast for this period
Text: PROB30
Forecast period: 1800 to 2100 UTC 12 June 2021
Forecast type: TEMPORARY: The following changes expected for less than half the time period
Winds: from the N (10 degrees) at 21 MPH (18 knots; 9.3 m/s)
gusting to 32 MPH (28 knots; 14.4 m/s)
Visibility: missing
Ceiling: unknown
Clouds: missing
Weather: no significant weather forecast for this period
Text: TEMPO 1218/1221 01018G28KT
Forecast period: 1000 to 1200 UTC 13 June 2021
Forecast type: TEMPORARY: The following changes expected for less than half the time period
Winds: variable direction winds at 6 MPH (5 knots; 2.6 m/s)
Visibility: missing
Ceiling: unknown
Clouds: missing
Weather: no significant weather forecast for this period